METAR Data
IDs: Format: Raw Decoded Include TAF

Data at: 1434 UTC 21 May 2019

KFOD 211356Z AUTO 11023G32KT 10SM OVC012 09/07 A2995 RMK AO2 PK WND 10032/1347 SLP171 T00890067
KFOD 211309Z AUTO 11020G27KT 10SM BKN014 OVC019 09/06 A2995 RMK AO2 PK WND 11031/1258
KFOD 211256Z AUTO 10018G27KT 10SM BKN016 OVC024 09/06 A2995 RMK AO2 PK WND 10033/1217 RAE04 SLP172 P0000 T00890061
KFOD 211156Z AUTO 10022G27KT 10SM -RA BKN022 OVC031 09/06 A2995 RMK AO2 PK WND 09027/1156 RAB48 SLP171 P0000 60001 7//// T00890061 10106 20089 58013
KFOD 211134Z AUTO 10018G22KT 10SM BKN024 OVC038 09/06 A2997 RMK AO2
KFOD 211056Z AUTO 11012KT 10SM SCT042 OVC055 09/06 A2997 RMK AO2 SLP179 P0001 T00940061
KFOD 210956Z AUTO 09013KT 10SM OVC065 10/06 A2998 RMK AO2 SLP181 T01000061
KFOD 210856Z AUTO 09014KT 10SM OVC060 10/06 A2998 RMK AO2 SLP182 T01000056 56012
KFOD 210756Z AUTO 10012KT 10SM OVC060 10/06 A2999 RMK AO2 SLP186 T01000061
KFOD 210656Z AUTO 09012KT 10SM OVC070 11/06 A3000 RMK AO2 SLP186 T01060061
KFOD 210556Z AUTO 09012KT 10SM BKN080 OVC090 11/06 A3002 RMK AO2 SLP196 T01060061 10128 20106 56007
KFOD 210456Z AUTO 09012KT 10SM OVC090 11/06 A3002 RMK AO2 SLP197 T01060061 401390039
KFOD 210356Z AUTO 08010KT 10SM SCT090 OVC110 11/06 A3004 RMK AO2 SLP202 T01110061
KFOD 210256Z AUTO 07010KT 10SM BKN090 11/06 A3004 RMK AO2 SLP205 T01110061 56010
KFOD 210156Z AUTO 09009KT 10SM FEW047 12/06 A3006 RMK AO2 SLP210 T01170061
KFOD 210056Z AUTO 10008KT 10SM CLR 12/06 A3006 RMK AO2 SLP210 T01220056
KFOD 202356Z AUTO 09010KT 10SM CLR 13/05 A3008 RMK AO2 SLP217 60001 T01280050 10139 20117 58016
KFOD 202256Z AUTO 08010KT 10SM FEW044 13/05 A3010 RMK AO2 SLP223 P0001 T01330050
KFOD 202156Z AUTO 08011KT 10SM FEW046 14/05 A3011 RMK AO2 SLP229 T01390050
KFOD 202056Z AUTO 09011KT 10SM BKN046 14/05 A3013 RMK AO2 SLP233 T01390050 58006
KFOD 201956Z AUTO 10009KT 10SM BKN042 13/05 A3015 RMK AO2 SLP242 T01330050
KFOD 201856Z AUTO 04010KT 10SM BKN038 13/05 A3014 RMK AO2 SLP239 T01280050
KFOD 201756Z AUTO 04012KT 10SM BKN034 12/04 A3014 RMK AO2 SLP239 P0001 6//// T01170044 10122 20039
KFOD 201656Z AUTO 05010KT 10SM FEW027 11/03 A3018 RMK AO2 SLP254 T01110033
KFOD 201556Z AUTO 10SM 11/04 RMK AO2 SLPNO T01060044 $
KFOD 201456Z AUTO 04008KT FEW020 09/04 A3018 RMK AO2 SLP253 T00890039 53009 PWINO RVRNO $
KFOD 201411Z AUTO 03009KT SCT016 07/03 A3017 RMK AO2 PWINO RVRNO $
KFOD 201356Z AUTO 03010KT 10SM BKN016 07/03 A3016 RMK AO2 SLP247 T00670033
KFOD 201303Z AUTO 01009KT 10SM BKN012 06/03 A3016 RMK AO2
KFOD 201256Z AUTO 01006KT 10SM SCT012 06/03 A3016 RMK AO2 SLP246 T00560028
KFOD 201156Z AUTO 34004KT 10SM CLR 04/02 A3015 RMK AO2 SLP245 6//// 7//// T00390022 10050 20039
KFOD 201116Z AUTO VRB05KT 10SM SCT019 04/02 A3014 RMK AO2
KFOD 201056Z AUTO 34007KT 10SM OVC019 04/02 A3014 RMK AO2 SLP239 T00390022
KFOD 200956Z AUTO 34003KT 10SM OVC019 04/02 A3011 RMK AO2 SLP231 T00390022
KFOD 200856Z AUTO 36005KT 10SM OVC019 04/02 RMK AO2 SLPNO 6//// T00440017 $
KFOD 200756Z AUTO 34006KT 10SM OVC019 04/02 A3007 RMK AO2 SLP217 T00440022
KFOD 200656Z AUTO 34003KT 10SM OVC019 04/02 A3008 RMK AO2 SLP220 T00440017
KFOD 200631Z AUTO 35007KT 10SM OVC019 04/02 A3007 RMK AO2
KFOD 200556Z AUTO 36008KT 10SM 04/02 A3007 RMK AO2 SLP216 6//// T00440017 10094 20044
KFOD 200456Z AUTO 10SM SCT011 OVC016 05/02 A3005 RMK AO2 SLP210 T00500022 401500050
KFOD 200356Z AUTO 36011KT 10SM OVC013 06/03 A3001 RMK AO2 SLP196 P0001 T00560033
KFOD 200316Z AUTO 35007G16KT 10SM BKN013 OVC022 06/04 A2998 RMK AO2
KFOD 200256Z AUTO 36010G14KT 10SM OVC015 06/04 RMK AO2 SLPNO 6//// T00610044 $